sensor_id;sensor_type;location;lat;lon;timestamp;P1;durP1;ratioP1;P2;durP2;ratioP2
72065;SDS011;59939;52.516;13.420;2023-02-02T00:02:33;14.40;;;4.07;;
72065;SDS011;59939;52.516;13.420;2023-02-02T00:05:37;15.20;;;2.80;;
72065;SDS011;59939;52.516;13.420;2023-02-02T00:08:43;16.67;;;5.03;;
72065;SDS011;59939;52.516;13.420;2023-02-02T00:11:50;16.83;;;3.63;;
72065;SDS011;59939;52.516;13.420;2023-02-02T00:14:55;13.47;;;3.93;;
72065;SDS011;59939;52.516;13.420;2023-02-02T00:17:58;18.77;;;4.13;;
72065;SDS011;59939;52.516;13.420;2023-02-02T00:21:10;17.97;;;3.87;;
72065;SDS011;59939;52.516;13.420;2023-02-02T00:24:14;19.33;;;4.33;;
72065;SDS011;59939;52.516;13.420;2023-02-02T00:27:21;14.50;;;3.17;;
72065;SDS011;59939;52.516;13.420;2023-02-02T00:30:25;14.20;;;3.30;;
72065;SDS011;59939;52.516;13.420;2023-02-02T00:33:29;24.77;;;4.47;;
72065;SDS011;59939;52.516;13.420;2023-02-02T00:36:33;10.90;;;3.00;;
72065;SDS011;59939;52.516;13.420;2023-02-02T00:39:37;15.10;;;4.00;;
72065;SDS011;59939;52.516;13.420;2023-02-02T00:42:40;15.10;;;4.33;;
72065;SDS011;59939;52.516;13.420;2023-02-02T00:45:46;15.33;;;3.43;;
72065;SDS011;59939;52.516;13.420;2023-02-02T00:48:50;14.60;;;4.37;;
72065;SDS011;59939;52.516;13.420;2023-02-02T00:51:57;17.40;;;5.90;;
72065;SDS011;59939;52.516;13.420;2023-02-02T00:55:01;20.70;;;5.80;;
72065;SDS011;59939;52.516;13.420;2023-02-02T00:58:08;8.57;;;3.23;;
72065;SDS011;59939;52.516;13.420;2023-02-02T01:01:17;15.50;;;6.53;;
72065;SDS011;59939;52.516;13.420;2023-02-02T01:04:23;17.10;;;6.77;;
72065;SDS011;59939;52.516;13.420;2023-02-02T01:07:29;26.60;;;8.77;;
72065;SDS011;59939;52.516;13.420;2023-02-02T01:10:33;23.93;;;15.63;;
72065;SDS011;59939;52.516;13.420;2023-02-02T01:13:37;18.83;;;17.03;;
72065;SDS011;59939;52.516;13.420;2023-02-02T01:16:41;22.23;;;14.90;;
72065;SDS011;59939;52.516;13.420;2023-02-02T01:19:45;25.80;;;23.17;;
72065;SDS011;59939;52.516;13.420;2023-02-02T01:22:48;43.57;;;40.40;;
72065;SDS011;59939;52.516;13.420;2023-02-02T01:26:05;54.07;;;50.27;;
72065;SDS011;59939;52.516;13.420;2023-02-02T01:29:10;58.37;;;54.60;;
72065;SDS011;59939;52.516;13.420;2023-02-02T01:32:15;70.23;;;65.97;;
72065;SDS011;59939;52.516;13.420;2023-02-02T01:38:52;61.20;;;57.70;;
72065;SDS011;59939;52.516;13.420;2023-02-02T01:41:56;67.73;;;63.63;;
72065;SDS011;59939;52.516;13.420;2023-02-02T01:48:12;48.60;;;45.67;;
72065;SDS011;59939;52.516;13.420;2023-02-02T01:51:17;46.43;;;42.90;;
72065;SDS011;59939;52.516;13.420;2023-02-02T01:57:44;49.87;;;46.37;;
72065;SDS011;59939;52.516;13.420;2023-02-02T02:00:49;75.80;;;71.33;;
72065;SDS011;59939;52.516;13.420;2023-02-02T02:03:54;51.43;;;47.93;;
72065;SDS011;59939;52.516;13.420;2023-02-02T02:06:59;59.83;;;56.30;;
72065;SDS011;59939;52.516;13.420;2023-02-02T02:10:05;58.10;;;55.07;;
72065;SDS011;59939;52.516;13.420;2023-02-02T02:13:10;54.13;;;50.60;;
72065;SDS011;59939;52.516;13.420;2023-02-02T02:16:17;55.03;;;51.73;;
72065;SDS011;59939;52.516;13.420;2023-02-02T02:19:41;57.53;;;53.87;;
72065;SDS011;59939;52.516;13.420;2023-02-02T02:23:30;53.13;;;49.67;;
72065;SDS011;59939;52.516;13.420;2023-02-02T02:27:05;42.03;;;39.00;;
72065;SDS011;59939;52.516;13.420;2023-02-02T02:30:20;43.77;;;40.60;;
72065;SDS011;59939;52.516;13.420;2023-02-02T02:33:31;39.23;;;36.53;;
72065;SDS011;59939;52.516;13.420;2023-02-02T02:36:41;37.17;;;33.90;;
72065;SDS011;59939;52.516;13.420;2023-02-02T02:39:49;28.50;;;25.63;;
72065;SDS011;59939;52.516;13.420;2023-02-02T02:42:57;29.30;;;20.47;;
72065;SDS011;59939;52.516;13.420;2023-02-02T02:46:09;23.47;;;14.70;;
72065;SDS011;59939;52.516;13.420;2023-02-02T02:49:16;15.70;;;12.97;;
72065;SDS011;59939;52.516;13.420;2023-02-02T02:52:21;19.80;;;17.80;;
72065;SDS011;59939;52.516;13.420;2023-02-02T02:55:25;23.40;;;13.40;;
72065;SDS011;59939;52.516;13.420;2023-02-02T02:58:35;21.20;;;10.97;;
72065;SDS011;59939;52.516;13.420;2023-02-02T03:01:47;13.13;;;9.17;;
72065;SDS011;59939;52.516;13.420;2023-02-02T03:05:00;17.73;;;8.33;;
72065;SDS011;59939;52.516;13.420;2023-02-02T03:11:18;15.80;;;5.00;;
72065;SDS011;59939;52.516;13.420;2023-02-02T03:14:23;11.07;;;4.37;;
72065;SDS011;59939;52.516;13.420;2023-02-02T03:17:29;15.23;;;4.83;;
72065;SDS011;59939;52.516;13.420;2023-02-02T03:20:33;14.50;;;4.57;;
72065;SDS011;59939;52.516;13.420;2023-02-02T03:23:37;15.40;;;4.97;;
72065;SDS011;59939;52.516;13.420;2023-02-02T03:26:43;14.30;;;4.43;;
72065;SDS011;59939;52.516;13.420;2023-02-02T03:29:49;16.67;;;4.03;;
72065;SDS011;59939;52.516;13.420;2023-02-02T03:32:53;12.47;;;4.67;;
72065;SDS011;59939;52.516;13.420;2023-02-02T03:35:57;12.10;;;4.33;;
72065;SDS011;59939;52.516;13.420;2023-02-02T03:39:01;15.67;;;4.50;;
72065;SDS011;59939;52.516;13.420;2023-02-02T03:42:04;14.83;;;3.97;;
72065;SDS011;59939;52.516;13.420;2023-02-02T03:45:08;10.60;;;3.70;;
72065;SDS011;59939;52.516;13.420;2023-02-02T03:48:15;12.43;;;4.17;;
72065;SDS011;59939;52.516;13.420;2023-02-02T03:51:18;9.83;;;3.90;;
72065;SDS011;59939;52.516;13.420;2023-02-02T03:54:22;9.07;;;3.97;;
72065;SDS011;59939;52.516;13.420;2023-02-02T03:57:26;15.23;;;4.07;;
72065;SDS011;59939;52.516;13.420;2023-02-02T04:00:32;19.03;;;4.60;;
72065;SDS011;59939;52.516;13.420;2023-02-02T04:03:36;10.50;;;4.43;;
72065;SDS011;59939;52.516;13.420;2023-02-02T04:06:40;17.83;;;5.43;;
72065;SDS011;59939;52.516;13.420;2023-02-02T04:09:58;16.73;;;5.10;;
72065;SDS011;59939;52.516;13.420;2023-02-02T04:13:04;11.30;;;4.27;;
72065;SDS011;59939;52.516;13.420;2023-02-02T04:16:11;12.83;;;4.60;;
72065;SDS011;59939;52.516;13.420;2023-02-02T04:19:15;14.60;;;4.40;;
72065;SDS011;59939;52.516;13.420;2023-02-02T04:22:23;12.73;;;4.70;;
72065;SDS011;59939;52.516;13.420;2023-02-02T04:25:27;12.80;;;4.83;;
72065;SDS011;59939;52.516;13.420;2023-02-02T04:28:31;12.53;;;4.23;;
72065;SDS011;59939;52.516;13.420;2023-02-02T04:31:35;14.80;;;3.90;;
72065;SDS011;59939;52.516;13.420;2023-02-02T04:34:40;11.80;;;4.77;;
72065;SDS011;59939;52.516;13.420;2023-02-02T04:37:44;12.20;;;3.50;;
72065;SDS011;59939;52.516;13.420;2023-02-02T04:40:48;13.07;;;3.37;;
72065;SDS011;59939;52.516;13.420;2023-02-02T04:43:54;17.37;;;4.60;;
72065;SDS011;59939;52.516;13.420;2023-02-02T04:46:58;17.80;;;4.40;;
72065;SDS011;59939;52.516;13.420;2023-02-02T04:50:03;11.20;;;3.17;;
72065;SDS011;59939;52.516;13.420;2023-02-02T04:53:07;19.60;;;4.13;;
72065;SDS011;59939;52.516;13.420;2023-02-02T04:56:17;9.87;;;3.57;;
72065;SDS011;59939;52.516;13.420;2023-02-02T04:59:28;8.43;;;3.00;;
72065;SDS011;59939;52.516;13.420;2023-02-02T05:02:34;16.50;;;4.13;;
72065;SDS011;59939;52.516;13.420;2023-02-02T05:05:39;11.90;;;3.77;;
72065;SDS011;59939;52.516;13.420;2023-02-02T05:08:42;14.80;;;4.10;;
72065;SDS011;59939;52.516;13.420;2023-02-02T05:11:54;11.90;;;5.27;;
72065;SDS011;59939;52.516;13.420;2023-02-02T05:14:58;13.27;;;5.27;;
72065;SDS011;59939;52.516;13.420;2023-02-02T05:18:04;12.63;;;5.43;;
72065;SDS011;59939;52.516;13.420;2023-02-02T05:21:10;12.80;;;4.40;;
72065;SDS011;59939;52.516;13.420;2023-02-02T05:24:16;11.80;;;5.40;;
72065;SDS011;59939;52.516;13.420;2023-02-02T05:27:36;11.67;;;5.90;;
72065;SDS011;59939;52.516;13.420;2023-02-02T05:30:40;18.10;;;5.80;;
72065;SDS011;59939;52.516;13.420;2023-02-02T05:33:44;12.30;;;4.63;;
72065;SDS011;59939;52.516;13.420;2023-02-02T05:36:49;12.80;;;4.83;;
72065;SDS011;59939;52.516;13.420;2023-02-02T05:40:01;13.90;;;5.30;;
72065;SDS011;59939;52.516;13.420;2023-02-02T05:43:05;16.50;;;5.03;;
72065;SDS011;59939;52.516;13.420;2023-02-02T05:46:09;10.90;;;4.40;;
72065;SDS011;59939;52.516;13.420;2023-02-02T05:49:14;11.77;;;4.70;;
72065;SDS011;59939;52.516;13.420;2023-02-02T05:52:18;15.47;;;3.73;;
72065;SDS011;59939;52.516;13.420;2023-02-02T05:55:23;18.03;;;4.43;;
72065;SDS011;59939;52.516;13.420;2023-02-02T05:58:28;18.77;;;4.50;;
72065;SDS011;59939;52.516;13.420;2023-02-02T06:01:32;6.13;;;3.27;;
72065;SDS011;59939;52.516;13.420;2023-02-02T06:04:47;12.13;;;4.23;;
72065;SDS011;59939;52.516;13.420;2023-02-02T06:07:51;12.43;;;3.90;;
72065;SDS011;59939;52.516;13.420;2023-02-02T06:10:54;11.57;;;3.90;;
72065;SDS011;59939;52.516;13.420;2023-02-02T06:13:59;12.07;;;4.00;;
72065;SDS011;59939;52.516;13.420;2023-02-02T06:17:03;17.83;;;3.90;;
72065;SDS011;59939;52.516;13.420;2023-02-02T06:20:07;14.43;;;3.73;;
72065;SDS011;59939;52.516;13.420;2023-02-02T06:23:11;15.33;;;3.77;;
72065;SDS011;59939;52.516;13.420;2023-02-02T06:26:23;10.13;;;3.67;;
72065;SDS011;59939;52.516;13.420;2023-02-02T06:29:29;12.90;;;3.83;;
72065;SDS011;59939;52.516;13.420;2023-02-02T06:32:35;17.70;;;4.00;;
72065;SDS011;59939;52.516;13.420;2023-02-02T06:35:39;11.97;;;3.60;;
72065;SDS011;59939;52.516;13.420;2023-02-02T06:38:43;13.90;;;4.20;;
72065;SDS011;59939;52.516;13.420;2023-02-02T06:41:46;15.27;;;3.97;;
72065;SDS011;59939;52.516;13.420;2023-02-02T06:44:51;13.97;;;4.30;;
72065;SDS011;59939;52.516;13.420;2023-02-02T06:47:57;9.80;;;3.17;;
72065;SDS011;59939;52.516;13.420;2023-02-02T06:51:01;19.10;;;3.93;;
72065;SDS011;59939;52.516;13.420;2023-02-02T06:54:05;13.27;;;3.73;;
72065;SDS011;59939;52.516;13.420;2023-02-02T06:57:09;5.43;;;2.50;;
72065;SDS011;59939;52.516;13.420;2023-02-02T07:03:53;15.00;;;3.90;;
72065;SDS011;59939;52.516;13.420;2023-02-02T07:06:57;18.13;;;4.07;;
72065;SDS011;59939;52.516;13.420;2023-02-02T07:10:09;15.23;;;3.17;;
72065;SDS011;59939;52.516;13.420;2023-02-02T07:13:18;13.40;;;3.27;;
72065;SDS011;59939;52.516;13.420;2023-02-02T07:16:22;13.73;;;3.83;;
72065;SDS011;59939;52.516;13.420;2023-02-02T07:19:28;12.37;;;2.87;;
72065;SDS011;59939;52.516;13.420;2023-02-02T07:22:32;11.97;;;2.80;;
72065;SDS011;59939;52.516;13.420;2023-02-02T07:25:37;15.30;;;4.73;;
72065;SDS011;59939;52.516;13.420;2023-02-02T07:28:46;8.70;;;2.70;;
72065;SDS011;59939;52.516;13.420;2023-02-02T07:31:49;10.57;;;2.63;;
72065;SDS011;59939;52.516;13.420;2023-02-02T07:34:55;5.63;;;2.07;;
72065;SDS011;59939;52.516;13.420;2023-02-02T07:37:59;13.27;;;2.90;;
72065;SDS011;59939;52.516;13.420;2023-02-02T07:41:03;12.10;;;2.87;;
72065;SDS011;59939;52.516;13.420;2023-02-02T07:44:12;12.17;;;3.20;;
72065;SDS011;59939;52.516;13.420;2023-02-02T07:47:20;14.70;;;3.00;;
72065;SDS011;59939;52.516;13.420;2023-02-02T07:50:25;11.03;;;2.60;;
72065;SDS011;59939;52.516;13.420;2023-02-02T07:53:36;12.23;;;3.07;;
72065;SDS011;59939;52.516;13.420;2023-02-02T07:56:40;18.33;;;4.73;;
72065;SDS011;59939;52.516;13.420;2023-02-02T07:59:44;14.17;;;3.23;;
72065;SDS011;59939;52.516;13.420;2023-02-02T08:02:48;13.50;;;2.83;;
72065;SDS011;59939;52.516;13.420;2023-02-02T08:05:52;11.00;;;3.27;;
72065;SDS011;59939;52.516;13.420;2023-02-02T08:09:04;9.17;;;3.37;;
72065;SDS011;59939;52.516;13.420;2023-02-02T08:12:08;12.00;;;3.93;;
72065;SDS011;59939;52.516;13.420;2023-02-02T08:15:14;19.27;;;4.17;;
72065;SDS011;59939;52.516;13.420;2023-02-02T08:18:21;13.33;;;3.43;;
72065;SDS011;59939;52.516;13.420;2023-02-02T08:21:25;8.40;;;3.27;;
72065;SDS011;59939;52.516;13.420;2023-02-02T08:24:28;16.33;;;3.80;;
72065;SDS011;59939;52.516;13.420;2023-02-02T08:27:34;8.63;;;3.63;;
72065;SDS011;59939;52.516;13.420;2023-02-02T08:30:40;18.17;;;3.80;;
72065;SDS011;59939;52.516;13.420;2023-02-02T08:33:44;17.77;;;4.10;;
72065;SDS011;59939;52.516;13.420;2023-02-02T08:36:48;18.57;;;4.30;;
72065;SDS011;59939;52.516;13.420;2023-02-02T08:39:51;10.43;;;3.23;;
72065;SDS011;59939;52.516;13.420;2023-02-02T08:42:55;8.13;;;3.43;;
72065;SDS011;59939;52.516;13.420;2023-02-02T08:45:59;15.23;;;4.00;;
72065;SDS011;59939;52.516;13.420;2023-02-02T08:49:09;15.00;;;5.23;;
72065;SDS011;59939;52.516;13.420;2023-02-02T08:52:13;14.47;;;3.50;;
72065;SDS011;59939;52.516;13.420;2023-02-02T08:55:24;12.10;;;3.80;;
72065;SDS011;59939;52.516;13.420;2023-02-02T08:58:31;13.43;;;4.20;;
72065;SDS011;59939;52.516;13.420;2023-02-02T09:01:36;19.83;;;3.80;;
72065;SDS011;59939;52.516;13.420;2023-02-02T09:04:42;12.63;;;3.77;;
72065;SDS011;59939;52.516;13.420;2023-02-02T09:07:48;11.20;;;3.00;;
72065;SDS011;59939;52.516;13.420;2023-02-02T09:10:52;11.10;;;2.97;;
72065;SDS011;59939;52.516;13.420;2023-02-02T09:13:56;11.40;;;3.43;;
72065;SDS011;59939;52.516;13.420;2023-02-02T09:17:01;17.03;;;4.13;;
72065;SDS011;59939;52.516;13.420;2023-02-02T09:20:12;13.30;;;3.80;;
72065;SDS011;59939;52.516;13.420;2023-02-02T09:23:24;14.23;;;3.30;;
72065;SDS011;59939;52.516;13.420;2023-02-02T09:26:28;12.50;;;3.53;;
72065;SDS011;59939;52.516;13.420;2023-02-02T09:29:32;12.70;;;3.37;;
72065;SDS011;59939;52.516;13.420;2023-02-02T09:32:40;12.90;;;3.77;;
72065;SDS011;59939;52.516;13.420;2023-02-02T09:35:44;10.80;;;2.77;;
72065;SDS011;59939;52.516;13.420;2023-02-02T09:38:49;18.73;;;3.60;;
72065;SDS011;59939;52.516;13.420;2023-02-02T09:42:19;11.77;;;3.47;;
72065;SDS011;59939;52.516;13.420;2023-02-02T09:49:04;12.50;;;2.67;;
72065;SDS011;59939;52.516;13.420;2023-02-02T09:52:11;11.03;;;2.57;;
72065;SDS011;59939;52.516;13.420;2023-02-02T09:55:27;16.43;;;3.80;;
72065;SDS011;59939;52.516;13.420;2023-02-02T09:58:33;11.03;;;3.23;;
72065;SDS011;59939;52.516;13.420;2023-02-02T10:01:40;13.50;;;3.53;;
72065;SDS011;59939;52.516;13.420;2023-02-02T10:04:50;12.70;;;3.27;;
72065;SDS011;59939;52.516;13.420;2023-02-02T10:07:56;11.40;;;2.47;;
72065;SDS011;59939;52.516;13.420;2023-02-02T10:11:04;11.40;;;2.63;;
72065;SDS011;59939;52.516;13.420;2023-02-02T10:14:12;17.10;;;3.23;;
72065;SDS011;59939;52.516;13.420;2023-02-02T10:17:27;11.43;;;3.07;;
72065;SDS011;59939;52.516;13.420;2023-02-02T10:20:51;13.40;;;2.90;;
72065;SDS011;59939;52.516;13.420;2023-02-02T10:24:00;14.00;;;2.77;;
72065;SDS011;59939;52.516;13.420;2023-02-02T10:27:14;11.57;;;2.40;;
72065;SDS011;59939;52.516;13.420;2023-02-02T10:30:35;10.77;;;2.80;;
72065;SDS011;59939;52.516;13.420;2023-02-02T10:33:40;10.00;;;2.63;;
72065;SDS011;59939;52.516;13.420;2023-02-02T10:36:46;15.97;;;2.40;;
72065;SDS011;59939;52.516;13.420;2023-02-02T10:39:56;14.30;;;2.77;;
72065;SDS011;59939;52.516;13.420;2023-02-02T10:46:45;11.17;;;2.60;;
72065;SDS011;59939;52.516;13.420;2023-02-02T10:49:53;12.63;;;2.20;;
72065;SDS011;59939;52.516;13.420;2023-02-02T10:52:59;12.50;;;2.23;;
72065;SDS011;59939;52.516;13.420;2023-02-02T10:56:05;14.20;;;2.07;;
72065;SDS011;59939;52.516;13.420;2023-02-02T10:59:16;9.33;;;2.30;;
72065;SDS011;59939;52.516;13.420;2023-02-02T11:02:23;13.07;;;2.27;;
72065;SDS011;59939;52.516;13.420;2023-02-02T11:05:27;10.43;;;1.83;;
72065;SDS011;59939;52.516;13.420;2023-02-02T11:09:04;13.00;;;2.63;;
72065;SDS011;59939;52.516;13.420;2023-02-02T11:12:21;12.53;;;2.63;;
72065;SDS011;59939;52.516;13.420;2023-02-02T11:15:27;15.00;;;2.33;;
72065;SDS011;59939;52.516;13.420;2023-02-02T11:18:32;10.20;;;2.20;;
72065;SDS011;59939;52.516;13.420;2023-02-02T11:21:38;12.17;;;2.03;;
72065;SDS011;59939;52.516;13.420;2023-02-02T11:24:46;9.90;;;1.87;;
72065;SDS011;59939;52.516;13.420;2023-02-02T11:27:55;12.00;;;1.80;;
72065;SDS011;59939;52.516;13.420;2023-02-02T11:30:58;7.03;;;1.60;;
72065;SDS011;59939;52.516;13.420;2023-02-02T11:34:16;9.87;;;2.60;;
72065;SDS011;59939;52.516;13.420;2023-02-02T11:37:23;12.33;;;2.67;;
72065;SDS011;59939;52.516;13.420;2023-02-02T11:46:36;10.50;;;1.97;;
72065;SDS011;59939;52.516;13.420;2023-02-02T11:49:54;6.30;;;1.87;;
72065;SDS011;59939;52.516;13.420;2023-02-02T11:53:18;10.43;;;2.20;;
72065;SDS011;59939;52.516;13.420;2023-02-02T11:59:45;11.33;;;2.10;;
72065;SDS011;59939;52.516;13.420;2023-02-02T12:02:51;11.77;;;2.23;;
72065;SDS011;59939;52.516;13.420;2023-02-02T12:05:55;10.47;;;2.40;;
72065;SDS011;59939;52.516;13.420;2023-02-02T12:09:00;8.97;;;1.93;;
72065;SDS011;59939;52.516;13.420;2023-02-02T12:12:07;10.30;;;2.80;;
72065;SDS011;59939;52.516;13.420;2023-02-02T12:15:18;13.10;;;2.43;;
72065;SDS011;59939;52.516;13.420;2023-02-02T12:21:39;15.20;;;5.10;;
72065;SDS011;59939;52.516;13.420;2023-02-02T12:28:23;8.17;;;3.13;;
72065;SDS011;59939;52.516;13.420;2023-02-02T12:35:10;5.93;;;2.47;;
72065;SDS011;59939;52.516;13.420;2023-02-02T12:38:20;8.30;;;2.13;;
72065;SDS011;59939;52.516;13.420;2023-02-02T12:51:18;14.90;;;2.40;;
72065;SDS011;59939;52.516;13.420;2023-02-02T13:05:10;7.93;;;1.87;;
72065;SDS011;59939;52.516;13.420;2023-02-02T13:11:35;10.13;;;2.10;;
72065;SDS011;59939;52.516;13.420;2023-02-02T13:14:42;5.60;;;1.93;;
72065;SDS011;59939;52.516;13.420;2023-02-02T13:17:57;10.60;;;2.07;;
72065;SDS011;59939;52.516;13.420;2023-02-02T13:21:02;9.40;;;1.97;;
72065;SDS011;59939;52.516;13.420;2023-02-02T13:24:09;11.83;;;2.53;;
72065;SDS011;59939;52.516;13.420;2023-02-02T13:27:17;6.53;;;1.40;;
72065;SDS011;59939;52.516;13.420;2023-02-02T13:30:26;7.93;;;1.93;;
72065;SDS011;59939;52.516;13.420;2023-02-02T13:33:33;10.30;;;1.90;;
72065;SDS011;59939;52.516;13.420;2023-02-02T13:36:38;8.20;;;1.70;;
72065;SDS011;59939;52.516;13.420;2023-02-02T13:39:47;6.90;;;1.67;;
72065;SDS011;59939;52.516;13.420;2023-02-02T13:49:28;5.70;;;2.00;;
72065;SDS011;59939;52.516;13.420;2023-02-02T13:52:39;11.70;;;2.67;;
72065;SDS011;59939;52.516;13.420;2023-02-02T13:55:49;8.90;;;2.23;;
72065;SDS011;59939;52.516;13.420;2023-02-02T13:59:02;8.33;;;1.87;;
72065;SDS011;59939;52.516;13.420;2023-02-02T14:02:20;8.30;;;2.00;;
72065;SDS011;59939;52.516;13.420;2023-02-02T14:05:39;8.47;;;2.20;;
72065;SDS011;59939;52.516;13.420;2023-02-02T14:08:54;9.43;;;1.83;;
72065;SDS011;59939;52.516;13.420;2023-02-02T14:12:08;9.80;;;2.37;;
72065;SDS011;59939;52.516;13.420;2023-02-02T14:25:45;4.47;;;1.40;;
72065;SDS011;59939;52.516;13.420;2023-02-02T14:28:40;8.07;;;2.30;;
72065;SDS011;59939;52.516;13.420;2023-02-02T14:31:55;7.50;;;1.60;;
72065;SDS011;59939;52.516;13.420;2023-02-02T14:38:18;6.30;;;1.70;;
72065;SDS011;59939;52.516;13.420;2023-02-02T14:45:03;7.47;;;1.80;;
72065;SDS011;59939;52.516;13.420;2023-02-02T14:48:12;6.87;;;3.20;;
72065;SDS011;59939;52.516;13.420;2023-02-02T14:51:22;5.20;;;1.50;;
72065;SDS011;59939;52.516;13.420;2023-02-02T14:54:28;5.97;;;1.60;;
72065;SDS011;59939;52.516;13.420;2023-02-02T14:57:35;4.17;;;1.30;;
72065;SDS011;59939;52.516;13.420;2023-02-02T15:00:39;5.53;;;1.60;;
72065;SDS011;59939;52.516;13.420;2023-02-02T15:03:54;5.70;;;1.63;;
72065;SDS011;59939;52.516;13.420;2023-02-02T15:07:34;9.73;;;1.83;;
72065;SDS011;59939;52.516;13.420;2023-02-02T15:11:25;9.70;;;1.80;;
72065;SDS011;59939;52.516;13.420;2023-02-02T15:13:58;6.80;;;1.70;;
72065;SDS011;59939;52.516;13.420;2023-02-02T15:17:11;6.43;;;1.90;;
72065;SDS011;59939;52.516;13.420;2023-02-02T15:23:45;7.93;;;1.57;;
72065;SDS011;59939;52.516;13.420;2023-02-02T15:26:52;5.13;;;1.37;;
72065;SDS011;59939;52.516;13.420;2023-02-02T15:30:00;7.17;;;1.67;;
72065;SDS011;59939;52.516;13.420;2023-02-02T15:33:13;6.73;;;1.77;;
72065;SDS011;59939;52.516;13.420;2023-02-02T15:39:30;5.47;;;1.70;;
72065;SDS011;59939;52.516;13.420;2023-02-02T15:42:40;9.40;;;1.93;;
72065;SDS011;59939;52.516;13.420;2023-02-02T15:46:04;6.23;;;1.77;;
72065;SDS011;59939;52.516;13.420;2023-02-02T15:49:13;9.10;;;1.80;;
72065;SDS011;59939;52.516;13.420;2023-02-02T15:52:34;6.83;;;2.07;;
72065;SDS011;59939;52.516;13.420;2023-02-02T15:55:49;9.37;;;2.07;;
72065;SDS011;59939;52.516;13.420;2023-02-02T15:58:54;5.73;;;2.00;;
72065;SDS011;59939;52.516;13.420;2023-02-02T16:05:23;7.37;;;1.87;;
72065;SDS011;59939;52.516;13.420;2023-02-02T16:08:30;7.10;;;1.80;;
72065;SDS011;59939;52.516;13.420;2023-02-02T16:11:40;5.50;;;1.87;;
72065;SDS011;59939;52.516;13.420;2023-02-02T16:14:51;8.43;;;2.20;;
72065;SDS011;59939;52.516;13.420;2023-02-02T16:18:03;8.67;;;2.30;;
72065;SDS011;59939;52.516;13.420;2023-02-02T16:21:14;10.33;;;2.20;;
72065;SDS011;59939;52.516;13.420;2023-02-02T16:24:30;5.53;;;1.83;;
72065;SDS011;59939;52.516;13.420;2023-02-02T16:27:35;6.63;;;1.77;;
72065;SDS011;59939;52.516;13.420;2023-02-02T16:30:41;4.57;;;1.77;;
72065;SDS011;59939;52.516;13.420;2023-02-02T16:33:46;4.57;;;1.67;;
72065;SDS011;59939;52.516;13.420;2023-02-02T16:37:03;8.47;;;2.27;;
72065;SDS011;59939;52.516;13.420;2023-02-02T16:43:29;8.10;;;2.33;;
72065;SDS011;59939;52.516;13.420;2023-02-02T16:46:46;8.30;;;2.00;;
72065;SDS011;59939;52.516;13.420;2023-02-02T16:50:37;9.17;;;2.47;;
72065;SDS011;59939;52.516;13.420;2023-02-02T16:53:20;10.80;;;2.30;;
72065;SDS011;59939;52.516;13.420;2023-02-02T16:56:39;8.57;;;2.10;;
72065;SDS011;59939;52.516;13.420;2023-02-02T17:00:03;8.27;;;2.07;;
72065;SDS011;59939;52.516;13.420;2023-02-02T17:03:08;8.37;;;2.00;;
72065;SDS011;59939;52.516;13.420;2023-02-02T17:06:24;8.70;;;2.60;;
72065;SDS011;59939;52.516;13.420;2023-02-02T17:09:37;9.00;;;2.33;;
72065;SDS011;59939;52.516;13.420;2023-02-02T17:12:44;10.07;;;2.57;;
72065;SDS011;59939;52.516;13.420;2023-02-02T17:15:51;7.67;;;2.43;;
72065;SDS011;59939;52.516;13.420;2023-02-02T17:18:59;9.60;;;2.30;;
72065;SDS011;59939;52.516;13.420;2023-02-02T17:22:03;9.37;;;2.07;;
72065;SDS011;59939;52.516;13.420;2023-02-02T17:25:10;8.07;;;2.40;;
72065;SDS011;59939;52.516;13.420;2023-02-02T17:28:18;9.27;;;2.07;;
72065;SDS011;59939;52.516;13.420;2023-02-02T17:31:22;9.70;;;2.90;;
72065;SDS011;59939;52.516;13.420;2023-02-02T17:34:27;11.83;;;3.37;;
72065;SDS011;59939;52.516;13.420;2023-02-02T17:37:40;10.93;;;3.03;;
72065;SDS011;59939;52.516;13.420;2023-02-02T17:40:45;10.17;;;2.87;;
72065;SDS011;59939;52.516;13.420;2023-02-02T17:43:50;15.27;;;3.53;;
72065;SDS011;59939;52.516;13.420;2023-02-02T17:46:58;12.00;;;3.50;;
72065;SDS011;59939;52.516;13.420;2023-02-02T17:50:05;13.10;;;3.17;;
72065;SDS011;59939;52.516;13.420;2023-02-02T17:53:19;10.63;;;3.43;;
72065;SDS011;59939;52.516;13.420;2023-02-02T17:56:23;10.83;;;3.20;;
72065;SDS011;59939;52.516;13.420;2023-02-02T17:59:29;9.57;;;3.30;;
72065;SDS011;59939;52.516;13.420;2023-02-02T18:02:33;9.43;;;3.50;;
72065;SDS011;59939;52.516;13.420;2023-02-02T18:05:37;16.33;;;4.13;;
72065;SDS011;59939;52.516;13.420;2023-02-02T18:08:43;10.63;;;3.30;;
72065;SDS011;59939;52.516;13.420;2023-02-02T18:11:51;12.83;;;3.77;;
72065;SDS011;59939;52.516;13.420;2023-02-02T18:14:55;10.53;;;3.20;;
72065;SDS011;59939;52.516;13.420;2023-02-02T18:21:56;11.77;;;3.97;;
72065;SDS011;59939;52.516;13.420;2023-02-02T18:25:07;11.97;;;3.17;;
72065;SDS011;59939;52.516;13.420;2023-02-02T18:28:20;9.73;;;2.97;;
72065;SDS011;59939;52.516;13.420;2023-02-02T18:31:24;11.97;;;3.10;;
72065;SDS011;59939;52.516;13.420;2023-02-02T18:34:36;11.30;;;2.87;;
72065;SDS011;59939;52.516;13.420;2023-02-02T18:37:42;10.20;;;2.87;;
72065;SDS011;59939;52.516;13.420;2023-02-02T18:40:52;7.70;;;3.00;;
72065;SDS011;59939;52.516;13.420;2023-02-02T18:43:56;13.20;;;3.57;;
72065;SDS011;59939;52.516;13.420;2023-02-02T18:47:01;8.33;;;2.97;;
72065;SDS011;59939;52.516;13.420;2023-02-02T18:50:06;12.17;;;3.03;;
72065;SDS011;59939;52.516;13.420;2023-02-02T18:53:14;9.23;;;2.97;;
72065;SDS011;59939;52.516;13.420;2023-02-02T18:56:20;11.97;;;3.63;;
72065;SDS011;59939;52.516;13.420;2023-02-02T18:59:27;15.50;;;4.10;;
72065;SDS011;59939;52.516;13.420;2023-02-02T19:02:31;19.07;;;4.50;;
72065;SDS011;59939;52.516;13.420;2023-02-02T19:05:37;17.27;;;4.37;;
72065;SDS011;59939;52.516;13.420;2023-02-02T19:09:04;19.13;;;5.73;;
72065;SDS011;59939;52.516;13.420;2023-02-02T19:12:10;15.20;;;4.13;;
72065;SDS011;59939;52.516;13.420;2023-02-02T19:15:14;12.30;;;4.13;;
72065;SDS011;59939;52.516;13.420;2023-02-02T19:18:20;14.20;;;3.50;;
72065;SDS011;59939;52.516;13.420;2023-02-02T19:21:28;12.40;;;3.77;;
72065;SDS011;59939;52.516;13.420;2023-02-02T19:24:36;14.33;;;3.77;;
72065;SDS011;59939;52.516;13.420;2023-02-02T19:27:44;11.63;;;3.77;;
72065;SDS011;59939;52.516;13.420;2023-02-02T19:30:53;14.13;;;4.67;;
72065;SDS011;59939;52.516;13.420;2023-02-02T19:34:00;13.87;;;5.83;;
72065;SDS011;59939;52.516;13.420;2023-02-02T19:40:30;18.27;;;5.33;;
72065;SDS011;59939;52.516;13.420;2023-02-02T19:43:43;20.30;;;5.37;;
72065;SDS011;59939;52.516;13.420;2023-02-02T19:46:51;15.40;;;5.37;;
72065;SDS011;59939;52.516;13.420;2023-02-02T19:49:56;17.13;;;5.13;;
72065;SDS011;59939;52.516;13.420;2023-02-02T19:53:00;18.93;;;5.23;;
72065;SDS011;59939;52.516;13.420;2023-02-02T19:56:29;16.47;;;5.67;;
72065;SDS011;59939;52.516;13.420;2023-02-02T19:59:39;17.13;;;6.10;;
72065;SDS011;59939;52.516;13.420;2023-02-02T20:03:01;17.63;;;7.07;;
72065;SDS011;59939;52.516;13.420;2023-02-02T20:06:12;15.03;;;5.47;;
72065;SDS011;59939;52.516;13.420;2023-02-02T20:09:27;18.53;;;6.40;;
72065;SDS011;59939;52.516;13.420;2023-02-02T20:12:32;14.43;;;6.37;;
72065;SDS011;59939;52.516;13.420;2023-02-02T20:15:36;12.17;;;5.60;;